Time;durP1;ratioP1;P1;durP2;ratioP2;P2;SDS_P1;SDS_P2;PMS_P1;PMS_P2;Temp;Humidity;BMP_temperature;BMP_pressure;BME280_temperature;BME280_humidity;BME280_pressure;Samples;Min_cycle;Max_cycle;Signal;HPM_P1;HPM_P2
2021/06/16 00:01:05;;;;;;;;;;;;;;;23.36;55.01;101565.19;2060216;28;3882;-72
2021/06/16 00:02:31;;;;;;;;;;;;;;;23.37;55.04;101563.16;2060912;28;4190;-72
2021/06/16 00:03:58;;;;;;;;;;;;;;;23.37;54.92;101558.28;2061183;28;3938;-71
2021/06/16 00:05:24;;;;;;;;;;;;;;;23.37;55.00;101563.16;2061171;28;4364;-72
2021/06/16 00:06:51;;;;;;;;;;;;;;;23.37;54.94;101560.31;2060831;28;3764;-71
2021/06/16 00:08:18;;;;;;;;;;;;;;;23.36;55.01;101556.63;2060549;28;4378;-72
2021/06/16 00:09:44;;;;;;;;;;;;;;;23.37;55.02;101552.56;2060744;28;4244;-71
2021/06/16 00:11:11;;;;;;;;;;;;;;;23.37;54.93;101561.13;2060365;28;3974;-71
2021/06/16 00:12:37;;;;;;;;;;;;;;;23.38;54.90;101562.81;2060437;28;4001;-72
2021/06/16 00:14:04;;;;;;;;;;;;;;;23.38;55.06;101556.25;2061297;28;3868;-71
2021/06/16 00:15:31;;;;;;;;;;;;;;;23.38;55.04;101567.66;2060632;28;4198;-71
2021/06/16 00:16:57;;;;;;;;;;;;;;;23.38;55.02;101561.97;2061465;28;3952;-71
2021/06/16 00:18:23;;;;;;;;;;;;;;;23.37;55.03;101566.84;2061556;28;4000;-72
2021/06/16 00:19:49;;;;;;;;;;;;;;;23.38;55.04;101556.25;2060590;28;3914;-71
2021/06/16 00:21:15;;;;;;;;;;;;;;;23.39;54.98;101566.50;2060474;28;4205;-72
2021/06/16 00:22:41;;;;;;;;;;;;;;;23.38;54.94;101565.69;2060353;28;4385;-72
2021/06/16 00:24:08;;;;;;;;;;;;;;;23.39;55.00;101575.91;2061043;28;4026;-72
2021/06/16 00:25:34;;;;;;;;;;;;;;;23.39;54.99;101569.38;2060328;28;4044;-72
2021/06/16 00:27:00;;;;;;;;;;;;;;;23.39;54.94;101569.38;2060667;28;3788;-72
2021/06/16 00:28:26;;;;;;;;;;;;;;;23.39;55.00;101573.03;2060263;28;4013;-72
2021/06/16 00:29:53;;;;;;;;;;;;;;;23.39;54.91;101578.75;2060423;28;4125;-72
2021/06/16 00:31:20;;;;;;;;;;;;;;;23.38;54.95;101573.38;2060328;28;4039;-73
2021/06/16 00:32:46;;;;;;;;;;;;;;;23.39;55.12;101573.03;2061218;28;4054;-73
2021/06/16 00:34:12;;;;;;;;;;;;;;;23.39;54.84;101573.03;2061127;28;4284;-72
2021/06/16 00:35:38;;;;;;;;;;;;;;;23.39;54.99;101575.91;2060333;28;4220;-72
2021/06/16 00:37:04;;;;;;;;;;;;;;;23.40;55.02;101576.72;2060783;28;3800;-73
2021/06/16 00:38:31;;;;;;;;;;;;;;;23.40;54.91;101576.72;2062347;28;4047;-72
2021/06/16 00:39:57;;;;;;;;;;;;;;;23.39;54.92;101569.38;2062528;28;3989;-72
2021/06/16 00:41:23;;;;;;;;;;;;;;;23.39;54.90;101573.03;2063936;28;4032;-72
2021/06/16 00:42:49;;;;;;;;;;;;;;;23.39;54.82;101570.19;2063134;28;4160;-72
2021/06/16 00:44:15;;;;;;;;;;;;;;;23.40;54.83;101565.31;2062684;28;4076;-72
2021/06/16 00:45:41;;;;;;;;;;;;;;;23.39;54.77;101573.03;2061552;28;4041;-72
2021/06/16 00:47:07;;;;;;;;;;;;;;;23.39;54.85;101567.34;2062695;28;3937;-72
2021/06/16 00:48:33;;;;;;;;;;;;;;;23.39;54.77;101570.19;2062087;28;3981;-73
2021/06/16 00:50:00;;;;;;;;;;;;;;;23.39;54.73;101570.19;2062689;28;4122;-73
2021/06/16 00:51:26;;;;;;;;;;;;;;;23.39;54.72;101567.34;2062188;28;4026;-72
2021/06/16 00:52:52;;;;;;;;;;;;;;;23.40;54.68;101571.84;2053779;28;3937;-73
2021/06/16 00:54:19;;;;;;;;;;;;;;;23.39;54.72;101573.03;2061025;28;4374;-73
2021/06/16 00:55:45;;;;;;;;;;;;;;;23.40;54.63;101569.00;2062673;28;4165;-73
2021/06/16 00:57:12;;;;;;;;;;;;;;;23.41;54.72;101569.84;2062976;28;4080;-73
2021/06/16 00:58:38;;;;;;;;;;;;;;;23.39;54.70;101573.03;2061902;28;4014;-73
2021/06/16 01:00:05;;;;;;;;;;;;;;;23.40;54.68;101574.69;2061320;28;3971;-73
2021/06/16 01:01:33;;;;;;;;;;;;;;;23.40;54.63;101576.72;2062218;28;4212;-73
2021/06/16 01:02:59;;;;;;;;;;;;;;;23.40;54.56;101576.72;2061450;28;4145;-73
2021/06/16 01:04:27;;;;;;;;;;;;;;;23.40;54.45;101573.88;2060869;28;4182;-73
2021/06/16 01:05:54;;;;;;;;;;;;;;;23.40;54.55;101579.59;2061375;28;4868;-72
2021/06/16 01:07:21;;;;;;;;;;;;;;;23.41;54.53;101569.84;2061713;28;4034;-74
2021/06/16 01:08:48;;;;;;;;;;;;;;;23.39;54.47;101573.03;2061960;28;4016;-72
2021/06/16 01:10:14;;;;;;;;;;;;;;;23.41;54.53;101576.41;2061794;28;3772;-73
2021/06/16 01:11:40;;;;;;;;;;;;;;;23.40;54.39;101574.69;2062127;28;4065;-72
2021/06/16 01:13:06;;;;;;;;;;;;;;;23.40;54.46;101574.69;2061027;28;3982;-73
2021/06/16 01:14:33;;;;;;;;;;;;;;;23.40;54.44;101580.41;2061868;28;4219;-72
2021/06/16 01:16:00;;;;;;;;;;;;;;;23.40;54.38;101574.69;2061205;28;3780;-72
2021/06/16 01:17:27;;;;;;;;;;;;;;;23.40;54.44;101577.56;2061382;28;4647;-73
2021/06/16 01:18:54;;;;;;;;;;;;;;;23.40;54.39;101569.00;2061360;28;4091;-73
2021/06/16 01:20:21;;;;;;;;;;;;;;;23.40;54.42;101574.69;2061797;28;4052;-72
2021/06/16 01:21:48;;;;;;;;;;;;;;;23.41;54.41;101569.84;2062274;28;3899;-73
2021/06/16 01:23:14;;;;;;;;;;;;;;;23.41;54.32;101581.28;2061939;28;4404;-73
2021/06/16 01:24:40;;;;;;;;;;;;;;;23.40;54.27;101574.69;2061291;28;4293;-73
2021/06/16 01:26:06;;;;;;;;;;;;;;;23.40;54.27;101577.56;2061784;28;4099;-72
2021/06/16 01:27:32;;;;;;;;;;;;;;;23.41;54.28;101569.84;2060513;28;4045;-73
2021/06/16 01:28:59;;;;;;;;;;;;;;;23.41;54.35;101578.41;2060199;28;3939;-72
2021/06/16 01:30:26;;;;;;;;;;;;;;;23.40;54.26;101577.56;2060412;28;4052;-73
2021/06/16 01:31:52;;;;;;;;;;;;;;;23.41;54.25;101575.56;2060574;28;3933;-73
2021/06/16 01:33:19;;;;;;;;;;;;;;;23.41;54.17;101570.69;2062338;28;3991;-73
2021/06/16 01:34:45;;;;;;;;;;;;;;;23.40;54.17;101580.41;2062074;28;4028;-73
2021/06/16 01:36:11;;;;;;;;;;;;;;;23.40;54.20;101574.69;2062163;28;4086;-71
2021/06/16 01:37:37;;;;;;;;;;;;;;;23.41;54.02;101578.41;2061146;28;4028;-72
2021/06/16 01:39:04;;;;;;;;;;;;;;;23.40;54.19;101571.84;2062566;28;4304;-72
2021/06/16 01:40:30;;;;;;;;;;;;;;;23.40;54.17;101571.84;2061455;28;4337;-72
2021/06/16 01:41:57;;;;;;;;;;;;;;;23.41;54.12;101578.41;2061970;28;3896;-72
2021/06/16 01:43:23;;;;;;;;;;;;;;;23.40;54.12;101577.56;2062629;28;4050;-72
2021/06/16 01:44:49;;;;;;;;;;;;;;;23.39;53.93;101578.75;2061565;28;3896;-72
2021/06/16 01:46:15;;;;;;;;;;;;;;;23.40;53.93;101583.28;2061938;28;3825;-72
2021/06/16 01:47:41;;;;;;;;;;;;;;;23.41;53.92;101575.56;2059859;28;5284;-72
2021/06/16 01:49:08;;;;;;;;;;;;;;;23.40;54.01;101580.41;2062039;28;3861;-72
2021/06/16 01:50:34;;;;;;;;;;;;;;;23.41;53.90;101572.72;2060899;28;4435;-72
2021/06/16 01:52:01;;;;;;;;;;;;;;;23.40;53.97;101579.59;2061898;28;3959;-72
2021/06/16 01:53:27;;;;;;;;;;;;;;;23.40;53.87;101574.69;2062434;28;4181;-72
2021/06/16 01:54:57;;;;;;;;;;;;;;;23.39;53.94;101581.63;2060789;28;3858;-72
2021/06/16 01:56:23;;;;;;;;;;;;;;;23.40;53.92;101576.72;2062025;28;4218;-71
2021/06/16 01:57:50;;;;;;;;;;;;;;;23.40;53.76;101573.88;2061895;28;3969;-72
2021/06/16 01:59:17;;;;;;;;;;;;;;;23.41;53.81;101582.09;2061744;28;4070;-72
2021/06/16 02:00:43;;;;;;;;;;;;;;;23.40;53.79;101576.72;2061572;28;4248;-72
2021/06/16 02:02:10;;;;;;;;;;;;;;;23.40;53.73;101577.56;2062334;28;4173;-72
2021/06/16 02:03:36;;;;;;;;;;;;;;;23.40;53.70;101571.03;2062818;28;3999;-72
2021/06/16 02:05:04;;;;;;;;;;;;;;;23.40;53.64;101573.88;2061224;28;4100;-71
2021/06/16 02:06:31;;;;;;;;;;;;;;;23.39;53.71;101575.91;2061819;28;3999;-71
2021/06/16 02:07:57;;;;;;;;;;;;;;;23.40;53.55;101574.69;2061484;28;4307;-71
2021/06/16 02:09:24;;;;;;;;;;;;;;;23.40;53.62;101571.03;2059909;28;4081;-71
2021/06/16 02:10:52;;;;;;;;;;;;;;;23.40;53.57;101579.59;2062296;28;4122;-72
2021/06/16 02:12:18;;;;;;;;;;;;;;;23.39;53.58;101575.91;2063459;28;4036;-72
2021/06/16 02:13:44;;;;;;;;;;;;;;;23.40;53.45;101576.72;2062714;28;4084;-72
2021/06/16 02:15:10;;;;;;;;;;;;;;;23.39;53.56;101575.91;2061787;28;3876;-71
2021/06/16 02:16:36;;;;;;;;;;;;;;;23.39;53.60;101575.91;2062014;28;4207;-73
2021/06/16 02:18:03;;;;;;;;;;;;;;;23.40;53.53;101577.56;2062322;28;4297;-72
2021/06/16 02:19:30;;;;;;;;;;;;;;;23.40;53.56;101573.88;2062078;28;4204;-72
2021/06/16 02:20:57;;;;;;;;;;;;;;;23.39;53.56;101570.19;2062518;28;4116;-72
2021/06/16 02:22:23;;;;;;;;;;;;;;;23.39;53.50;101570.19;2061588;28;4165;-72
2021/06/16 02:23:49;;;;;;;;;;;;;;;23.39;53.57;101575.91;2052582;28;4287;-73
2021/06/16 02:25:16;;;;;;;;;;;;;;;23.40;53.58;101573.88;2059157;28;4554;-73
2021/06/16 02:26:43;;;;;;;;;;;;;;;23.39;53.64;101573.03;2061058;28;4080;-73
2021/06/16 02:28:09;;;;;;;;;;;;;;;23.39;53.60;101573.03;2063017;28;3998;-73
2021/06/16 02:29:36;;;;;;;;;;;;;;;23.39;53.63;101573.03;2061417;28;4060;-73
2021/06/16 02:31:03;;;;;;;;;;;;;;;23.40;53.61;101565.31;2061466;28;4139;-73
2021/06/16 02:32:29;;;;;;;;;;;;;;;23.40;53.66;101571.03;2061077;28;4320;-74
2021/06/16 02:33:55;;;;;;;;;;;;;;;23.39;53.61;101573.03;2061978;28;3983;-74
2021/06/16 02:35:21;;;;;;;;;;;;;;;23.39;53.65;101567.34;2060497;28;4044;-73
2021/06/16 02:36:47;;;;;;;;;;;;;;;23.40;53.56;101574.69;2062701;28;4087;-74
2021/06/16 02:38:14;;;;;;;;;;;;;;;23.39;53.54;101560.78;2061403;28;4086;-74
2021/06/16 02:39:40;;;;;;;;;;;;;;;23.39;53.53;101561.63;2061379;28;4244;-73
2021/06/16 02:41:06;;;;;;;;;;;;;;;23.39;53.48;101558.78;2060972;28;4088;-73
2021/06/16 02:42:33;;;;;;;;;;;;;;;23.39;53.56;101564.47;2060956;28;4273;-73
2021/06/16 02:43:59;;;;;;;;;;;;;;;23.38;53.52;101571.38;2061404;28;4103;-73
2021/06/16 02:45:27;;;;;;;;;;;;;;;23.38;53.45;101574.25;2060895;28;4470;-73
2021/06/16 02:46:54;;;;;;;;;;;;;;;23.39;53.44;101575.91;2061171;28;4089;-73
2021/06/16 02:48:21;;;;;;;;;;;;;;;23.39;53.52;101564.47;2060928;28;4611;-71
2021/06/16 02:49:47;;;;;;;;;;;;;;;23.38;53.33;101565.69;2062265;28;4213;-72
2021/06/16 02:51:17;;;;;;;;;;;;;;;23.38;53.39;101571.38;2061452;28;4703;-72
2021/06/16 02:52:44;;;;;;;;;;;;;;;23.39;53.38;101563.66;2061454;28;4024;-72
2021/06/16 02:54:11;;;;;;;;;;;;;;;23.39;53.35;101569.38;2061595;28;3904;-71
2021/06/16 02:55:37;;;;;;;;;;;;;;;23.38;53.36;101574.25;2060817;28;4004;-72
2021/06/16 02:57:04;;;;;;;;;;;;;;;23.39;53.37;101570.19;2060967;28;4218;-72
2021/06/16 02:58:30;;;;;;;;;;;;;;;23.38;53.25;101577.09;2059866;28;4352;-71
2021/06/16 02:59:56;;;;;;;;;;;;;;;23.39;53.22;101572.22;2061316;28;3984;-72
2021/06/16 03:01:23;;;;;;;;;;;;;;;23.39;53.20;101569.38;2060023;28;4272;-72
2021/06/16 03:02:50;;;;;;;;;;;;;;;23.38;53.26;101571.38;2062730;28;4005;-74
2021/06/16 03:04:16;;;;;;;;;;;;;;;23.38;53.19;101577.09;2061006;28;4013;-74
2021/06/16 03:05:43;;;;;;;;;;;;;;;23.39;53.26;101575.06;2061564;28;4774;-75
2021/06/16 03:07:10;;;;;;;;;;;;;;;23.39;53.33;101578.75;2059068;28;4442;-74
2021/06/16 03:08:37;;;;;;;;;;;;;;;23.39;53.28;101575.06;2061431;28;4253;-74
2021/06/16 03:10:03;;;;;;;;;;;;;;;23.39;53.21;101575.91;2062275;28;3987;-74
2021/06/16 03:11:30;;;;;;;;;;;;;;;23.38;53.19;101577.09;2060284;28;4314;-74
2021/06/16 03:12:56;;;;;;;;;;;;;;;23.39;53.27;101575.91;2061106;28;3894;-74
2021/06/16 03:14:23;;;;;;;;;;;;;;;23.39;53.19;101578.75;2059865;28;4076;-75
2021/06/16 03:15:50;;;;;;;;;;;;;;;23.39;53.20;101572.22;2060184;28;4000;-73
2021/06/16 03:17:17;;;;;;;;;;;;;;;23.39;53.19;101583.63;2059165;28;4064;-73
2021/06/16 03:18:44;;;;;;;;;;;;;;;23.38;53.14;101582.81;2060683;28;4143;-73
2021/06/16 03:20:10;;;;;;;;;;;;;;;23.38;53.10;101571.38;2061203;28;4647;-72
2021/06/16 03:21:38;;;;;;;;;;;;;;;23.38;53.11;101573.38;2060555;28;4257;-73
2021/06/16 03:23:04;;;;;;;;;;;;;;;23.38;52.99;101571.38;2060514;28;4246;-72
2021/06/16 03:24:31;;;;;;;;;;;;;;;23.39;52.92;101566.50;2060091;28;4204;-72
2021/06/16 03:25:57;;;;;;;;;;;;;;;23.38;52.95;101568.53;2060440;28;4060;-72
2021/06/16 03:27:23;;;;;;;;;;;;;;;23.39;52.86;101575.06;2060340;28;4018;-72
2021/06/16 03:28:50;;;;;;;;;;;;;;;23.37;52.93;101566.84;2060481;28;4384;-72
2021/06/16 03:30:17;;;;;;;;;;;;;;;23.38;52.72;101571.38;2060073;28;4030;-71
2021/06/16 03:31:43;;;;;;;;;;;;;;;23.38;52.77;101573.38;2059087;28;4031;-73
2021/06/16 03:33:09;;;;;;;;;;;;;;;23.38;52.70;101568.53;2060261;28;4402;-72
2021/06/16 03:34:36;;;;;;;;;;;;;;;23.38;52.70;101565.69;2060883;28;4205;-72
2021/06/16 03:36:02;;;;;;;;;;;;;;;23.38;52.60;101571.38;2061460;28;3899;-72
2021/06/16 03:37:28;;;;;;;;;;;;;;;23.39;52.49;101566.50;2061384;28;4007;-72
2021/06/16 03:38:55;;;;;;;;;;;;;;;23.38;52.52;101571.38;2060255;28;3909;-72
2021/06/16 03:40:21;;;;;;;;;;;;;;;23.39;52.48;101575.91;2060104;28;4208;-72
2021/06/16 03:41:47;;;;;;;;;;;;;;;23.38;52.40;101571.38;2060122;28;4069;-72
2021/06/16 03:43:14;;;;;;;;;;;;;;;23.37;52.45;101575.41;2060495;28;3868;-72
2021/06/16 03:44:40;;;;;;;;;;;;;;;23.38;52.37;101564.81;2059201;28;4062;-72
2021/06/16 03:46:06;;;;;;;;;;;;;;;23.38;52.38;101577.09;2060448;28;3885;-71
2021/06/16 03:47:32;;;;;;;;;;;;;;;23.38;52.35;101571.38;2059793;28;5094;-71
2021/06/16 03:48:59;;;;;;;;;;;;;;;23.37;52.28;101575.41;2060660;28;3959;-72
2021/06/16 03:50:26;;;;;;;;;;;;;;;23.36;52.27;101568.03;2059827;28;4308;-72
2021/06/16 03:51:52;;;;;;;;;;;;;;;23.37;52.23;101575.41;2060796;28;3953;-73
2021/06/16 03:53:19;;;;;;;;;;;;;;;23.38;52.21;101573.38;2060099;28;3806;-74
2021/06/16 03:54:46;;;;;;;;;;;;;;;23.37;52.17;101575.41;2060266;28;4232;-74
2021/06/16 03:56:13;;;;;;;;;;;;;;;23.38;52.13;101568.53;2060490;28;4252;-74
2021/06/16 03:57:40;;;;;;;;;;;;;;;23.37;52.08;101572.56;2059972;28;4041;-73
2021/06/16 03:59:06;;;;;;;;;;;;;;;23.38;52.17;101568.53;2060704;28;4081;-73
2021/06/16 04:00:32;;;;;;;;;;;;;;;23.37;52.23;101568.88;2059986;28;4219;-74
2021/06/16 04:01:59;;;;;;;;;;;;;;;23.37;52.20;101568.88;2060094;28;4073;-73
2021/06/16 04:03:25;;;;;;;;;;;;;;;23.35;52.32;101557.81;2059275;28;4238;-73
2021/06/16 04:04:52;;;;;;;;;;;;;;;23.35;52.20;101557.81;2060198;28;4146;-73
2021/06/16 04:06:18;;;;;;;;;;;;;;;23.36;52.30;101555.78;2059769;28;4153;-74
2021/06/16 04:07:44;;;;;;;;;;;;;;;23.36;52.23;101555.78;2058448;28;4055;-74
2021/06/16 04:09:10;;;;;;;;;;;;;;;23.34;52.25;101559.81;2060502;28;4113;-73
2021/06/16 04:10:37;;;;;;;;;;;;;;;23.34;52.29;101554.09;2059763;28;4231;-72
2021/06/16 04:12:03;;;;;;;;;;;;;;;23.36;52.30;101555.78;2060491;28;4007;-72
2021/06/16 04:13:30;;;;;;;;;;;;;;;23.34;52.21;101562.66;2060569;28;4053;-74
2021/06/16 04:14:57;;;;;;;;;;;;;;;23.36;52.15;101564.34;2061141;28;3911;-75
2021/06/16 04:16:25;;;;;;;;;;;;;;;23.36;52.07;101567.22;2058518;28;4056;-74
2021/06/16 04:17:53;;;;;;;;;;;;;;;23.35;52.16;101560.66;2060110;28;4953;-74
2021/06/16 04:19:20;;;;;;;;;;;;;;;23.37;51.66;101566.00;2059772;28;4231;-76
2021/06/16 04:20:46;;;;;;;;;;;;;;;23.29;51.14;101562.06;2057706;28;4018;-75
2021/06/16 04:22:13;;;;;;;;;;;;;;;23.23;50.43;101569.16;2059677;28;3894;-74
2021/06/16 04:23:39;;;;;;;;;;;;;;;23.18;49.98;101566.53;2057385;28;4237;-72
2021/06/16 04:25:05;;;;;;;;;;;;;;;23.12;49.16;101568.78;2060953;28;4057;-72
2021/06/16 04:26:31;;;;;;;;;;;;;;;23.08;49.09;101562.94;2059925;28;4270;-73
2021/06/16 04:27:58;;;;;;;;;;;;;;;23.04;48.46;101563.97;2058919;28;3926;-72
2021/06/16 04:29:24;;;;;;;;;;;;;;;23.00;48.31;101569.56;2058685;28;4225;-72
2021/06/16 04:30:50;;;;;;;;;;;;;;;22.99;47.85;101569.88;2060149;28;4157;-72
2021/06/16 04:32:17;;;;;;;;;;;;;;;22.96;48.02;101565.72;2060066;28;3908;-73
2021/06/16 04:33:43;;;;;;;;;;;;;;;22.95;48.11;101569.72;2060404;28;4215;-73
2021/06/16 04:35:10;;;;;;;;;;;;;;;22.93;47.99;101569.22;2060458;28;4079;-72
2021/06/16 04:36:37;;;;;;;;;;;;;;;22.90;47.37;101570.75;2059901;28;4152;-72
2021/06/16 04:38:04;;;;;;;;;;;;;;;22.87;47.16;101564.94;2060338;28;4027;-73
2021/06/16 04:39:30;;;;;;;;;;;;;;;22.85;47.03;101567.28;2059969;28;4003;-72
2021/06/16 04:40:57;;;;;;;;;;;;;;;22.84;46.98;101568.47;2059853;28;4562;-72
2021/06/16 04:42:23;;;;;;;;;;;;;;;22.83;47.21;101566.81;2059625;28;4210;-72
2021/06/16 04:43:49;;;;;;;;;;;;;;;22.82;47.11;101571.66;2060205;28;4095;-72
2021/06/16 04:45:15;;;;;;;;;;;;;;;22.82;47.21;101565.13;2060809;28;4116;-72
2021/06/16 04:46:42;;;;;;;;;;;;;;;22.79;47.23;101563.81;2060426;28;4219;-73
2021/06/16 04:48:08;;;;;;;;;;;;;;;22.79;47.00;101569.50;2061577;28;4029;-72
2021/06/16 04:49:36;;;;;;;;;;;;;;;22.78;46.95;101572.72;2059487;28;5070;-73
2021/06/16 04:51:02;;;;;;;;;;;;;;;22.76;46.77;101572.22;2061284;28;3971;-72
2021/06/16 04:52:29;;;;;;;;;;;;;;;22.74;46.59;101577.44;2060510;28;4014;-74
2021/06/16 04:53:55;;;;;;;;;;;;;;;22.70;46.24;101574.47;2060250;28;4387;-73
2021/06/16 04:55:23;;;;;;;;;;;;;;;22.68;46.39;101571.94;2059576;28;4047;-73
2021/06/16 04:56:49;;;;;;;;;;;;;;;22.68;46.27;101571.94;2060996;28;3918;-72
2021/06/16 04:58:15;;;;;;;;;;;;;;;22.66;46.27;101573.47;2060665;28;4119;-74
2021/06/16 04:59:41;;;;;;;;;;;;;;;22.65;46.06;101568.94;2059787;28;5115;-75
2021/06/16 05:01:07;;;;;;;;;;;;;;;22.64;46.19;101567.28;2060755;28;4070;-75
2021/06/16 05:02:34;;;;;;;;;;;;;;;22.63;46.22;101571.31;2059937;28;4066;-75
2021/06/16 05:04:01;;;;;;;;;;;;;;;22.62;46.07;101572.50;2059843;28;4319;-75
2021/06/16 05:05:28;;;;;;;;;;;;;;;22.57;46.15;101567.81;2059598;28;4237;-73
2021/06/16 05:06:54;;;;;;;;;;;;;;;22.55;46.18;101570.22;2060682;28;3855;-72
2021/06/16 05:08:21;;;;;;;;;;;;;;;22.54;46.02;101564.84;2059510;28;4094;-72
2021/06/16 05:09:48;;;;;;;;;;;;;;;22.51;46.16;101566.38;2060914;28;3896;-77
2021/06/16 05:11:15;;;;;;;;;;;;;;;22.52;46.47;101568.03;2060728;28;4001;-69
2021/06/16 05:12:43;;;;;;;;;;;;;;;22.53;46.70;101569.72;2059619;28;4963;-69
2021/06/16 05:14:10;;;;;;;;;;;;;;;22.55;46.78;101572.19;2060737;28;3983;-68
2021/06/16 05:15:36;;;;;;;;;;;;;;;22.55;47.03;101560.78;2060031;28;3987;-69
2021/06/16 05:17:02;;;;;;;;;;;;;;;22.56;47.09;101565.34;2059621;28;4173;-68
2021/06/16 05:18:30;;;;;;;;;;;;;;;22.55;46.99;101561.66;2061431;28;4064;-68
2021/06/16 05:19:57;;;;;;;;;;;;;;;22.57;47.30;101559.28;2060491;28;4072;-68
2021/06/16 05:21:24;;;;;;;;;;;;;;;22.57;46.92;101567.00;2061322;28;4031;-70
2021/06/16 05:22:50;;;;;;;;;;;;;;;22.56;46.76;101559.63;2060820;28;4082;-71
2021/06/16 05:24:18;;;;;;;;;;;;;;;22.55;46.86;101566.50;2062385;28;4015;-70
2021/06/16 05:25:46;;;;;;;;;;;;;;;22.53;46.83;101557.47;2061541;28;4223;-70
2021/06/16 05:27:16;;;;;;;;;;;;;;;22.53;47.09;101563.19;2061837;28;4018;-68
2021/06/16 05:28:42;;;;;;;;;;;;;;;22.52;46.61;101561.50;2062360;28;4203;-72
2021/06/16 05:30:09;;;;;;;;;;;;;;;22.53;46.90;101557.47;2062161;28;3840;-69
2021/06/16 05:31:36;;;;;;;;;;;;;;;22.51;46.77;101566.38;2062087;28;4170;-70
2021/06/16 05:33:03;;;;;;;;;;;;;;;22.51;46.91;101562.69;2060473;28;3951;-70
2021/06/16 05:34:30;;;;;;;;;;;;;;;22.52;46.69;101564.34;2061743;28;4057;-70
2021/06/16 05:35:56;;;;;;;;;;;;;;;22.51;46.81;101572.06;2062055;28;4123;-72
2021/06/16 05:37:22;;;;;;;;;;;;;;;22.51;46.54;101565.53;2062132;28;4001;-70
2021/06/16 05:38:49;;;;;;;;;;;;;;;22.50;46.41;101570.41;2061649;28;3904;-72
2021/06/16 05:40:15;;;;;;;;;;;;;;;22.48;46.33;101569.06;2061351;28;4104;-72
2021/06/16 05:41:41;;;;;;;;;;;;;;;22.49;46.31;101562.19;2059703;28;4248;-72
2021/06/16 05:43:07;;;;;;;;;;;;;;;22.48;46.53;101564.22;2062007;28;4088;-72
2021/06/16 05:44:33;;;;;;;;;;;;;;;22.50;46.63;101569.56;2060623;28;4213;-73
2021/06/16 05:46:01;;;;;;;;;;;;;;;22.50;46.63;101561.84;2061788;28;4133;-74
2021/06/16 05:47:28;;;;;;;;;;;;;;;22.50;46.65;101563.88;2061851;28;4188;-72
2021/06/16 05:48:55;;;;;;;;;;;;;;;22.50;46.67;101564.72;2062450;28;4281;-72
2021/06/16 05:50:21;;;;;;;;;;;;;;;22.50;46.29;101564.72;2060845;28;4176;-72
2021/06/16 05:51:48;;;;;;;;;;;;;;;22.49;46.48;101560.16;2061398;28;4117;-72
2021/06/16 05:53:15;;;;;;;;;;;;;;;22.48;46.34;101561.34;2060325;28;4111;-73
2021/06/16 05:54:41;;;;;;;;;;;;;;;22.49;46.41;101562.19;2061361;28;4002;-73
2021/06/16 05:56:07;;;;;;;;;;;;;;;22.47;46.41;101559.69;2061506;28;3956;-73
2021/06/16 05:57:34;;;;;;;;;;;;;;;22.48;46.70;101560.53;2060937;28;4241;-73
2021/06/16 05:59:01;;;;;;;;;;;;;;;22.49;46.92;101556.47;2061222;28;3944;-73
2021/06/16 06:00:28;;;;;;;;;;;;;;;22.48;46.39;101555.66;2061718;28;4184;-72
2021/06/16 06:01:55;;;;;;;;;;;;;;;22.48;46.60;101555.66;2061254;28;4453;-73
2021/06/16 06:03:21;;;;;;;;;;;;;;;22.48;46.70;101555.66;2061814;28;4234;-73
2021/06/16 06:04:48;;;;;;;;;;;;;;;22.47;46.55;101556.84;2059772;28;3998;-72
2021/06/16 06:06:15;;;;;;;;;;;;;;;22.48;46.87;101554.81;2061871;28;3816;-74
2021/06/16 06:07:42;;;;;;;;;;;;;;;22.49;46.82;101562.19;2061454;28;4195;-74
2021/06/16 06:09:08;;;;;;;;;;;;;;;22.49;46.75;101553.63;2060663;28;4092;-74
2021/06/16 06:10:35;;;;;;;;;;;;;;;22.49;46.83;101556.47;2060381;28;4198;-74
2021/06/16 06:12:01;;;;;;;;;;;;;;;22.48;46.60;101549.94;2061121;28;3959;-74
2021/06/16 06:13:28;;;;;;;;;;;;;;;22.49;46.85;101554.47;2061519;28;4026;-74
2021/06/16 06:14:54;;;;;;;;;;;;;;;22.48;46.87;101552.81;2060997;28;3823;-73
2021/06/16 06:16:20;;;;;;;;;;;;;;;22.50;46.80;101563.88;2060559;28;4195;-71
2021/06/16 06:17:47;;;;;;;;;;;;;;;22.49;46.88;101553.63;2060747;28;3818;-71
2021/06/16 06:19:14;;;;;;;;;;;;;;;22.49;46.77;101557.31;2060079;28;3896;-72
2021/06/16 06:20:40;;;;;;;;;;;;;;;22.49;46.98;101557.31;2059652;28;4277;-73
2021/06/16 06:22:07;;;;;;;;;;;;;;;22.49;47.08;101554.47;2060375;28;4146;-74
2021/06/16 06:23:34;;;;;;;;;;;;;;;22.50;47.13;101561.84;2061270;28;4600;-79
2021/06/16 06:25:01;;;;;;;;;;;;;;;22.49;47.20;101550.78;2059995;28;5280;-82
2021/06/16 06:26:27;;;;;;;;;;;;;;;22.47;47.17;101559.69;2060228;28;4178;-81
2021/06/16 06:27:53;;;;;;;;;;;;;;;22.45;46.80;101557.19;2060237;28;3903;-73
2021/06/16 06:29:22;;;;;;;;;;;;;;;22.44;46.90;101555.53;2060479;28;4015;-72
2021/06/16 06:30:48;;;;;;;;;;;;;;;22.46;46.85;101555.16;2061164;28;3879;-73
2021/06/16 06:32:15;;;;;;;;;;;;;;;22.47;46.96;101554.00;2060585;28;3827;-72
2021/06/16 06:33:42;;;;;;;;;;;;;;;22.48;47.13;101547.09;2061101;28;4046;-72
2021/06/16 06:35:08;;;;;;;;;;;;;;;22.49;47.14;101553.63;2060530;28;3953;-71
2021/06/16 06:36:36;;;;;;;;;;;;;;;22.49;47.01;101547.94;2060466;28;4216;-73
2021/06/16 06:38:03;;;;;;;;;;;;;;;22.48;46.92;101555.66;2061798;28;3985;-75
2021/06/16 06:39:29;;;;;;;;;;;;;;;22.49;47.27;101554.47;2061013;28;4031;-74
2021/06/16 06:40:55;;;;;;;;;;;;;;;22.49;47.03;101548.75;2061217;28;4110;-75
2021/06/16 06:42:22;;;;;;;;;;;;;;;22.50;47.24;101552.47;2060432;28;4151;-75
2021/06/16 06:43:49;;;;;;;;;;;;;;;22.50;47.32;101550.44;2060395;28;4264;-75
2021/06/16 06:45:15;;;;;;;;;;;;;;;22.51;47.30;101548.41;2060377;28;4020;-76
2021/06/16 06:46:41;;;;;;;;;;;;;;;22.51;47.41;101545.56;2060353;28;4205;-76
2021/06/16 06:48:08;;;;;;;;;;;;;;;22.52;47.27;101555.78;2061323;28;4039;-76
2021/06/16 06:49:35;;;;;;;;;;;;;;;22.51;47.61;101549.25;2060311;28;4050;-72
2021/06/16 06:51:02;;;;;;;;;;;;;;;22.51;47.26;101546.41;2061138;28;4097;-74
2021/06/16 06:52:29;;;;;;;;;;;;;;;22.52;47.59;101550.91;2060483;28;4207;-73
2021/06/16 06:53:56;;;;;;;;;;;;;;;22.53;47.68;101558.31;2060263;28;4404;-73
2021/06/16 06:55:22;;;;;;;;;;;;;;;22.52;47.49;101550.09;2060557;28;4071;-73
2021/06/16 06:56:48;;;;;;;;;;;;;;;22.52;47.42;101555.78;2060491;28;3890;-73
2021/06/16 06:58:14;;;;;;;;;;;;;;;22.53;47.42;101551.78;2060504;28;4058;-74
2021/06/16 06:59:41;;;;;;;;;;;;;;;22.53;47.51;101552.59;2060586;28;4042;-74
2021/06/16 07:01:07;;;;;;;;;;;;;;;22.52;47.78;101548.06;2061347;28;4073;-73
2021/06/16 07:02:33;;;;;;;;;;;;;;;22.52;47.67;101545.22;2060780;28;4100;-73
2021/06/16 07:04:01;;;;;;;;;;;;;;;22.53;47.41;101549.75;2060405;28;3794;-73
2021/06/16 07:05:27;;;;;;;;;;;;;;;22.53;47.39;101544.03;2061310;28;4233;-71
2021/06/16 07:06:53;;;;;;;;;;;;;;;22.56;47.36;101551.06;2061950;28;3903;-71
2021/06/16 07:08:20;;;;;;;;;;;;;;;22.56;47.55;101546.19;2061853;28;3961;-70
2021/06/16 07:09:48;;;;;;;;;;;;;;;22.56;47.56;101543.34;2061122;28;3940;-72
2021/06/16 07:11:14;;;;;;;;;;;;;;;22.56;47.59;101542.53;2060896;28;4073;-70
2021/06/16 07:12:40;;;;;;;;;;;;;;;22.57;47.56;101547.88;2060801;28;4042;-70
2021/06/16 07:14:07;;;;;;;;;;;;;;;22.59;47.14;101538.97;2061321;28;4264;-75
2021/06/16 07:15:33;;;;;;;;;;;;;;;22.58;47.48;101546.69;2061640;28;4624;-73
2021/06/16 07:17:00;;;;;;;;;;;;;;;22.58;47.57;101543.00;2061640;28;3970;-75
2021/06/16 07:18:27;;;;;;;;;;;;;;;22.58;47.46;101534.47;2060736;28;4300;-81
2021/06/16 07:19:54;;;;;;;;;;;;;;;22.56;47.69;101534.78;2061087;28;3912;-79
2021/06/16 07:21:21;;;;;;;;;;;;;;;22.56;47.58;101539.66;2061382;28;4206;-72
2021/06/16 07:22:47;;;;;;;;;;;;;;;22.56;47.67;101533.97;2061543;28;4110;-72
2021/06/16 07:24:15;;;;;;;;;;;;;;;22.55;47.71;101530.28;2060458;28;4173;-73
2021/06/16 07:25:41;;;;;;;;;;;;;;;22.57;47.93;101536.44;2061496;28;4039;-74
2021/06/16 07:27:07;;;;;;;;;;;;;;;22.56;48.02;101536.81;2061122;28;3806;-72
2021/06/16 07:28:33;;;;;;;;;;;;;;;22.57;47.68;101535.63;2060861;28;4176;-72
2021/06/16 07:30:00;;;;;;;;;;;;;;;22.57;48.02;101529.91;2060952;28;4096;-73
2021/06/16 07:31:27;;;;;;;;;;;;;;;22.57;47.94;101522.19;2060990;28;4190;-73